Time;durP1;ratioP1;P1;durP2;ratioP2;P2;SDS_P1;SDS_P2;PMS_P1;PMS_P2;Temp;Humidity;BMP_temperature;BMP_pressure;BME280_temperature;BME280_humidity;BME280_pressure;Samples;Min_cycle;Max_cycle;Signal;HPM_P1;HPM_P2
2024/03/27 00:00:54;;;;;;;18.92;13.73;;;;;;;-146.25;100.00;52475.66;2097825;28;20045;-64
2024/03/27 00:01:56;;;;;;;18.27;13.75;;;;;;;-146.25;100.00;52514.19;2097242;28;20056;-63
2024/03/27 00:02:57;;;;;;;19.98;13.95;;;;;;;-146.25;100.00;52457.41;2097955;28;20079;-64
2024/03/27 00:03:57;;;;;;;20.23;13.50;;;;;;;-146.25;100.00;52514.19;2097232;28;20125;-64
2024/03/27 00:05:01;;;;;;;19.60;13.60;;;;;;;-146.25;100.00;52481.75;2088761;28;20048;-64
2024/03/27 00:06:04;;;;;;;18.52;14.02;;;;;;;-146.25;100.00;52475.66;2089295;28;20895;-64
2024/03/27 00:07:05;;;;;;;18.83;13.90;;;;;;;-146.25;100.00;52489.84;2089902;28;20096;-64
2024/03/27 00:08:06;;;;;;;16.90;13.23;;;;;;;-146.25;100.00;52510.13;2097305;28;20347;-64
2024/03/27 00:09:13;;;;;;;20.63;13.95;;;;;;;-146.25;100.00;52508.09;2097448;28;20048;-64
2024/03/27 00:10:14;;;;;;;16.85;12.82;;;;;;;-146.25;100.00;52481.75;2097417;28;20038;-64
2024/03/27 00:11:16;;;;;;;20.55;13.98;;;;;;;-146.25;100.00;52493.91;2097549;28;20147;-63
2024/03/27 00:12:17;;;;;;;19.23;13.50;;;;;;;-146.25;100.00;52502.03;2088643;28;20041;-64
2024/03/27 00:13:18;;;;;;;19.73;13.73;;;;;;;-146.25;100.00;52473.63;2081189;28;20035;-63
2024/03/27 00:14:19;;;;;;;18.85;13.52;;;;;;;-146.25;100.00;52502.03;2089036;28;20116;-64
2024/03/27 00:15:20;;;;;;;18.17;14.15;;;;;;;-146.25;100.00;52556.75;2097571;28;20048;-63
2024/03/27 00:16:21;;;;;;;19.50;13.23;;;;;;;-146.25;100.00;52508.09;2088523;28;20064;-64
2024/03/27 00:17:22;;;;;;;19.10;13.52;;;;;;;-146.25;100.00;52546.63;2097138;28;20041;-64
2024/03/27 00:18:23;;;;;;;18.98;14.32;;;;;;;-146.25;100.00;52489.84;2105696;28;20067;-65
2024/03/27 00:19:26;;;;;;;18.55;13.63;;;;;;;-146.25;100.00;52493.91;2097485;28;20052;-64
2024/03/27 00:20:27;;;;;;;19.52;13.35;;;;;;;-146.25;100.00;52485.81;2097118;28;20037;-64
2024/03/27 00:21:28;;;;;;;16.15;12.45;;;;;;;-146.25;100.00;52493.91;2097197;28;20531;-64
2024/03/27 00:22:29;;;;;;;20.92;13.30;;;;;;;-146.25;100.00;52449.31;2097169;28;20061;-64
2024/03/27 00:23:29;;;;;;;17.52;12.98;;;;;;;-146.25;100.00;52524.31;2097555;28;20037;-64
2024/03/27 00:24:34;;;;;;;19.02;13.45;;;;;;;-146.25;100.00;52471.59;2097307;28;20481;-64
2024/03/27 00:25:35;;;;;;;22.38;13.13;;;;;;;-146.25;100.00;52520.28;2097683;28;20199;-64
2024/03/27 00:26:35;;;;;;;19.52;12.70;;;;;;;-146.25;100.00;52497.97;2097167;28;20171;-64
2024/03/27 00:27:36;;;;;;;17.40;12.75;;;;;;;-146.25;100.00;52508.09;2097166;28;20125;-63
2024/03/27 00:28:37;;;;;;;19.17;13.35;;;;;;;-146.25;100.00;52465.53;2096826;28;20048;-64
2024/03/27 00:29:38;;;;;;;19.30;13.07;;;;;;;-146.25;100.00;52500.00;2097339;28;20112;-64
2024/03/27 00:30:39;;;;;;;16.17;12.77;;;;;;;-146.25;100.00;52493.91;2096841;28;20029;-64
2024/03/27 00:31:40;;;;;;;17.38;13.23;;;;;;;-146.25;100.00;52516.22;2105805;28;20056;-64
2024/03/27 00:32:41;;;;;;;18.95;14.25;;;;;;;-146.25;100.00;52508.09;2097042;28;20045;-64
2024/03/27 00:33:42;;;;;;;20.17;13.13;;;;;;;-146.25;100.00;52477.69;2080826;28;20046;-64
2024/03/27 00:34:42;;;;;;;19.02;13.57;;;;;;;-146.25;100.00;52481.75;2088737;28;20056;-64
2024/03/27 00:35:59;;;;;;;19.70;12.52;;;;;;;-146.25;100.00;52485.81;2105441;28;20040;-64
2024/03/27 00:37:00;;;;;;;19.50;13.38;;;;;;;-146.25;100.00;52514.19;2107860;28;20044;-64
2024/03/27 00:38:03;;;;;;;17.75;13.52;;;;;;;-146.25;100.00;52508.09;2105525;28;20037;-64
2024/03/27 00:39:06;;;;;;;17.60;13.40;;;;;;;-146.25;100.00;52504.03;2097294;28;20107;-64
2024/03/27 00:40:08;;;;;;;18.02;12.93;;;;;;;-146.25;100.00;52465.53;2096720;28;20021;-64
2024/03/27 00:41:09;;;;;;;18.17;12.98;;;;;;;-146.25;100.00;52465.53;2097269;28;20929;-64
2024/03/27 00:42:10;;;;;;;18.33;13.40;;;;;;;-146.25;100.00;52508.09;2097294;28;20222;-64
2024/03/27 00:43:11;;;;;;;20.27;13.15;;;;;;;-146.25;100.00;52500.00;2097539;28;20582;-64
2024/03/27 00:44:12;;;;;;;17.42;13.32;;;;;;;-146.25;100.00;52479.72;2088793;28;20055;-64
2024/03/27 00:45:15;;;;;;;18.60;13.15;;;;;;;-146.25;100.00;52485.81;2089224;28;20803;-64
2024/03/27 00:46:16;;;;;;;18.73;13.07;;;;;;;-146.25;100.00;52506.06;2105880;28;20048;-64
2024/03/27 00:47:16;;;;;;;18.08;13.43;;;;;;;-146.25;100.00;52524.31;2105690;28;20423;-64
2024/03/27 00:48:20;;;;;;;18.30;13.50;;;;;;;-146.25;100.00;52469.56;2096135;28;20045;-64
2024/03/27 00:49:20;;;;;;;19.35;13.30;;;;;;;-146.25;100.00;52516.22;2097121;28;20041;-64
2024/03/27 00:50:21;;;;;;;18.63;12.82;;;;;;;-146.25;100.00;52481.75;2097094;28;20576;-64
2024/03/27 00:51:24;;;;;;;17.77;12.65;;;;;;;-146.25;100.00;52538.53;2097005;28;20054;-65
2024/03/27 00:52:25;;;;;;;17.52;12.45;;;;;;;-146.25;100.00;52506.06;2097336;28;21011;-64
2024/03/27 00:53:26;;;;;;;15.18;12.45;;;;;;;-146.25;100.00;52500.00;2097242;28;20099;-64
2024/03/27 00:54:27;;;;;;;17.25;13.07;;;;;;;-146.25;100.00;52489.84;2097001;28;20033;-64
2024/03/27 00:55:29;;;;;;;17.63;13.40;;;;;;;-146.25;100.00;52467.56;2096748;28;20477;-64
2024/03/27 00:56:30;;;;;;;18.98;13.27;;;;;;;-146.25;100.00;52485.81;2105558;28;20936;-64
2024/03/27 00:57:31;;;;;;;16.70;12.50;;;;;;;-146.25;100.00;52481.75;2105575;28;20040;-63
2024/03/27 00:58:32;;;;;;;20.73;13.02;;;;;;;-146.25;100.00;52473.63;2096961;28;20040;-64
2024/03/27 00:59:33;;;;;;;18.30;13.68;;;;;;;-146.25;100.00;52528.38;2096754;28;20037;-64
2024/03/27 01:00:33;;;;;;;16.40;12.52;;;;;;;-146.25;100.00;52457.41;2088569;28;20033;-64
2024/03/27 01:01:34;;;;;;;18.42;13.52;;;;;;;-146.25;100.00;52510.13;2089005;28;20166;-64
2024/03/27 01:02:35;;;;;;;18.98;12.93;;;;;;;-146.25;100.00;52493.91;2088756;28;20111;-64
2024/03/27 01:03:36;;;;;;;18.33;13.65;;;;;;;-146.25;100.00;52500.00;2097049;28;20079;-63
2024/03/27 01:04:37;;;;;;;18.58;13.45;;;;;;;-146.25;100.00;52504.03;2088262;28;20092;-64
2024/03/27 01:05:41;;;;;;;17.95;13.57;;;;;;;-146.25;100.00;52481.75;2088755;28;20143;-63
2024/03/27 01:06:42;;;;;;;15.40;12.07;;;;;;;-146.25;100.00;52516.22;2097164;28;20041;-64
2024/03/27 01:07:43;;;;;;;18.67;13.35;;;;;;;-146.25;100.00;52508.09;2097365;28;20514;-63
2024/03/27 01:08:44;;;;;;;17.95;13.82;;;;;;;-146.25;100.00;52493.91;2097013;28;20084;-64
2024/03/27 01:09:45;;;;;;;17.42;13.07;;;;;;;-146.25;100.00;52481.75;2094325;28;20483;-65
2024/03/27 01:10:46;;;;;;;16.85;12.98;;;;;;;-146.25;100.00;52504.03;2096385;28;20117;-64
2024/03/27 01:11:47;;;;;;;19.30;13.68;;;;;;;-146.25;100.00;52463.50;2096914;28;20025;-63
2024/03/27 01:12:48;;;;;;;17.45;13.38;;;;;;;-146.25;100.00;52514.19;2087803;28;20382;-64
2024/03/27 01:13:48;;;;;;;17.45;12.68;;;;;;;-146.25;100.00;52475.66;2087951;28;20041;-63
2024/03/27 01:14:51;;;;;;;20.10;13.57;;;;;;;-146.25;100.00;52544.59;2096446;28;20049;-63
2024/03/27 01:15:53;;;;;;;19.55;13.80;;;;;;;-146.25;100.00;52502.03;2105299;28;20116;-63
2024/03/27 01:16:54;;;;;;;19.13;13.60;;;;;;;-146.25;100.00;52540.53;2096579;28;20056;-64
2024/03/27 01:17:55;;;;;;;19.10;13.40;;;;;;;-146.25;100.00;52500.00;2097292;28;20073;-63
2024/03/27 01:18:56;;;;;;;17.42;13.82;;;;;;;-146.25;100.00;52495.94;2097030;28;20992;-64
2024/03/27 01:19:58;;;;;;;21.05;13.80;;;;;;;-146.25;100.00;52471.59;2096891;28;20048;-62
2024/03/27 01:20:59;;;;;;;19.58;13.60;;;;;;;-146.25;100.00;52540.53;2097000;28;20087;-61
2024/03/27 01:22:00;;;;;;;15.10;12.88;;;;;;;-146.25;100.00;52512.16;2105442;28;20048;-62
2024/03/27 01:23:01;;;;;;;17.83;12.85;;;;;;;-146.25;100.00;52481.75;2104982;28;20147;-61
2024/03/27 01:24:04;;;;;;;17.33;13.10;;;;;;;-146.25;100.00;52512.16;2105664;28;20058;-64
2024/03/27 01:25:06;;;;;;;18.23;13.75;;;;;;;-146.25;100.00;52485.81;2104757;28;21013;-63
2024/03/27 01:26:06;;;;;;;18.33;13.52;;;;;;;-146.25;100.00;52477.69;2088690;28;20045;-62
2024/03/27 01:27:07;;;;;;;18.65;13.52;;;;;;;-146.25;100.00;52504.03;2088225;28;20057;-62
2024/03/27 01:28:10;;;;;;;19.27;13.55;;;;;;;-146.25;100.00;52473.63;2096742;28;20037;-62
2024/03/27 01:29:11;;;;;;;18.75;13.73;;;;;;;-146.25;100.00;52493.91;2096888;28;20980;-65
2024/03/27 01:30:14;;;;;;;16.75;12.68;;;;;;;-146.25;100.00;52512.16;2097341;28;20048;-62
2024/03/27 01:31:14;;;;;;;21.15;13.73;;;;;;;-146.25;100.00;52514.19;2096572;28;20148;-62
2024/03/27 01:32:15;;;;;;;17.98;13.05;;;;;;;-146.25;100.00;52510.13;2097034;28;20041;-63
2024/03/27 01:33:16;;;;;;;20.15;13.70;;;;;;;-146.25;100.00;52485.81;2096593;28;20422;-62
2024/03/27 01:34:19;;;;;;;18.63;14.25;;;;;;;-146.25;100.00;52510.13;2097074;28;20083;-62
2024/03/27 01:35:20;;;;;;;17.98;13.50;;;;;;;-146.25;100.00;52497.97;2096941;28;20893;-63
2024/03/27 01:36:21;;;;;;;17.02;13.15;;;;;;;-146.25;100.00;52522.28;2096728;28;20044;-63
2024/03/27 01:37:22;;;;;;;18.00;13.77;;;;;;;-146.25;100.00;52469.56;2096869;28;20041;-62
2024/03/27 01:38:23;;;;;;;17.40;13.43;;;;;;;-146.25;100.00;52516.22;2096742;28;20045;-62
2024/03/27 01:39:25;;;;;;;17.52;13.57;;;;;;;-146.25;100.00;52493.91;2096784;28;20037;-65
2024/03/27 01:40:30;;;;;;;17.55;13.07;;;;;;;-146.25;100.00;52522.28;2096516;28;20048;-63
2024/03/27 01:41:33;;;;;;;19.65;13.55;;;;;;;-146.25;100.00;52514.19;2105102;28;20940;-63
2024/03/27 01:42:36;;;;;;;19.65;14.45;;;;;;;-146.25;100.00;52495.94;2104418;28;20033;-62
2024/03/27 01:43:37;;;;;;;20.58;13.70;;;;;;;-146.25;100.00;52485.81;2104982;28;20110;-62
2024/03/27 01:44:37;;;;;;;19.25;13.93;;;;;;;-146.25;100.00;52443.22;2105160;28;20043;-63
2024/03/27 01:45:38;;;;;;;21.88;14.70;;;;;;;-146.25;100.00;52512.16;2104900;28;20040;-63
2024/03/27 01:46:39;;;;;;;16.90;13.32;;;;;;;-146.25;100.00;52504.03;2104756;28;20044;-63
2024/03/27 01:47:41;;;;;;;17.17;12.50;;;;;;;-146.25;100.00;52471.59;2104928;28;20499;-62
2024/03/27 01:48:43;;;;;;;15.55;12.43;;;;;;;-146.25;100.00;52477.69;2096394;28;20111;-62
2024/03/27 01:49:45;;;;;;;18.77;13.38;;;;;;;-146.25;100.00;52491.88;2080055;28;20927;-63
2024/03/27 01:50:46;;;;;;;17.40;13.43;;;;;;;-146.25;100.00;52481.75;2088360;28;20037;-63
2024/03/27 01:51:50;;;;;;;21.48;13.70;;;;;;;-146.25;100.00;52475.66;2096295;28;20045;-62
2024/03/27 01:52:51;;;;;;;18.95;13.45;;;;;;;-146.25;100.00;52491.88;2096779;28;20976;-62
2024/03/27 01:53:52;;;;;;;18.70;13.60;;;;;;;-146.25;100.00;52483.78;2088175;28;20772;-63
2024/03/27 01:54:53;;;;;;;17.98;13.65;;;;;;;-146.25;100.00;52481.75;2087954;28;20041;-62
2024/03/27 01:55:58;;;;;;;17.70;13.60;;;;;;;-146.25;100.00;52493.91;2087944;28;20069;-62
2024/03/27 01:57:02;;;;;;;18.65;13.93;;;;;;;-146.25;100.00;52502.03;2105283;28;20059;-62
2024/03/27 01:58:04;;;;;;;17.52;14.23;;;;;;;-146.25;100.00;52439.16;2096113;28;20033;-63
2024/03/27 01:59:05;;;;;;;18.92;13.80;;;;;;;-146.25;100.00;52481.75;2088533;28;20030;-63
2024/03/27 02:00:08;;;;;;;19.48;13.48;;;;;;;-146.25;100.00;52481.75;2096508;28;20043;-64
2024/03/27 02:01:15;;;;;;;17.83;12.95;;;;;;;-146.25;100.00;52510.13;2106565;28;20150;-63
2024/03/27 02:02:17;;;;;;;17.42;13.77;;;;;;;-146.25;100.00;52465.53;2104845;28;20052;-63
2024/03/27 02:03:20;;;;;;;19.08;13.27;;;;;;;-146.25;100.00;52493.91;2104644;28;20083;-62
2024/03/27 02:04:21;;;;;;;18.13;13.02;;;;;;;-146.25;100.00;52451.31;2096779;28;20029;-62
2024/03/27 02:05:24;;;;;;;17.02;13.27;;;;;;;-146.25;100.00;52481.75;2087946;28;20108;-62
2024/03/27 02:06:26;;;;;;;18.38;13.57;;;;;;;-146.25;100.00;52538.53;2088405;28;20041;-62
2024/03/27 02:07:27;;;;;;;17.85;13.57;;;;;;;-146.25;100.00;52516.22;2105028;28;20043;-62
2024/03/27 02:08:30;;;;;;;20.50;13.88;;;;;;;-146.25;100.00;52481.75;2104812;28;20179;-62
2024/03/27 02:09:31;;;;;;;19.98;13.55;;;;;;;-146.25;100.00;52518.25;2105142;28;20039;-62
2024/03/27 02:10:31;;;;;;;17.52;13.32;;;;;;;-146.25;100.00;52449.31;2104535;28;20408;-63
2024/03/27 02:11:35;;;;;;;20.85;13.48;;;;;;;-146.25;100.00;52512.16;2096158;28;20045;-62
2024/03/27 02:12:41;;;;;;;17.55;13.77;;;;;;;-146.25;100.00;52536.50;2096216;28;20450;-62
2024/03/27 02:13:42;;;;;;;17.58;13.52;;;;;;;-146.25;100.00;52516.22;2105395;28;20080;-63
2024/03/27 02:14:42;;;;;;;17.17;12.55;;;;;;;-146.25;100.00;52461.47;2105165;28;20044;-62
2024/03/27 02:15:44;;;;;;;20.88;13.95;;;;;;;-146.25;100.00;52475.66;2087704;28;20087;-63
2024/03/27 02:16:45;;;;;;;20.90;13.57;;;;;;;-146.25;100.00;52481.75;2096849;28;20037;-62
2024/03/27 02:17:46;;;;;;;19.23;13.50;;;;;;;-146.25;100.00;52514.19;2096493;28;20079;-62
2024/03/27 02:18:47;;;;;;;18.70;14.30;;;;;;;-146.25;100.00;52491.88;2088282;28;20504;-63
2024/03/27 02:19:48;;;;;;;18.55;13.40;;;;;;;-146.25;100.00;52463.50;2096284;28;20052;-63
2024/03/27 02:20:49;;;;;;;18.88;13.73;;;;;;;-146.25;100.00;52510.13;2104722;28;20135;-62
2024/03/27 02:21:50;;;;;;;16.85;12.95;;;;;;;-146.25;100.00;52497.97;2096148;28;20111;-65
2024/03/27 02:23:00;;;;;;;19.98;13.88;;;;;;;-146.25;100.00;52473.63;2096660;28;20037;-63
2024/03/27 02:24:36;;;;;;;19.00;13.88;;;;;;;-146.25;100.00;52477.69;2096482;28;20988;-63
2024/03/27 02:26:06;;;;;;;19.30;13.50;;;;;;;-146.25;100.00;52510.13;2090830;28;20053;-63
2024/03/27 02:27:07;;;;;;;16.50;12.75;;;;;;;-146.25;100.00;52473.63;2100658;28;20071;-63
2024/03/27 02:28:10;;;;;;;16.48;12.75;;;;;;;-146.25;100.00;52485.81;2094133;28;20037;-62
2024/03/27 02:29:11;;;;;;;17.85;12.90;;;;;;;-146.25;100.00;52514.19;2088159;28;20042;-64
2024/03/27 02:30:12;;;;;;;18.90;14.20;;;;;;;-146.25;100.00;52475.66;2088422;28;20491;-62
2024/03/27 02:31:12;;;;;;;20.58;14.25;;;;;;;-146.25;100.00;52489.84;2096482;28;20029;-63
2024/03/27 02:32:13;;;;;;;22.15;15.38;;;;;;;-146.25;100.00;52495.94;2096471;28;20052;-63
2024/03/27 02:33:14;;;;;;;17.73;14.02;;;;;;;-146.25;100.00;52493.91;2096254;28;20057;-63
2024/03/27 02:34:15;;;;;;;19.30;14.18;;;;;;;-146.25;100.00;52506.06;2096443;28;20561;-63
2024/03/27 02:35:18;;;;;;;18.25;14.05;;;;;;;-146.25;100.00;52477.69;2096297;28;20045;-62
2024/03/27 02:36:19;;;;;;;19.20;13.93;;;;;;;-146.25;100.00;52459.44;2104962;28;20757;-62
2024/03/27 02:37:20;;;;;;;17.90;14.65;;;;;;;-146.25;100.00;52465.53;2097020;28;20049;-63
2024/03/27 02:38:23;;;;;;;17.13;13.25;;;;;;;-146.25;100.00;52500.00;2079749;28;20042;-62
2024/03/27 02:39:24;;;;;;;19.52;13.95;;;;;;;-146.25;100.00;52455.38;2088099;28;20029;-62
2024/03/27 02:40:25;;;;;;;18.85;13.38;;;;;;;-146.25;100.00;52502.03;2104148;28;20049;-63
2024/03/27 02:41:26;;;;;;;19.00;13.88;;;;;;;-146.25;100.00;52477.69;2104939;28;20047;-63
2024/03/27 02:42:26;;;;;;;20.75;13.95;;;;;;;-146.25;100.00;52473.63;2104532;28;20510;-62
2024/03/27 02:43:29;;;;;;;17.80;13.48;;;;;;;-146.25;100.00;52510.13;2104647;28;20549;-63
2024/03/27 02:44:29;;;;;;;21.00;14.82;;;;;;;-146.25;100.00;52506.06;2095952;28;20063;-63
2024/03/27 02:45:30;;;;;;;18.70;13.88;;;;;;;-146.25;100.00;52477.69;2096495;28;20037;-63
2024/03/27 02:46:31;;;;;;;18.05;13.88;;;;;;;-146.25;100.00;52467.56;2104652;28;20070;-63
2024/03/27 02:47:32;;;;;;;18.48;13.52;;;;;;;-146.25;100.00;52493.91;2104730;28;20514;-63
2024/03/27 02:48:35;;;;;;;20.02;13.13;;;;;;;-146.25;100.00;52485.81;2087852;28;20083;-63
2024/03/27 02:49:36;;;;;;;17.05;13.25;;;;;;;-146.25;100.00;52518.25;2105336;28;20071;-63
2024/03/27 02:50:36;;;;;;;18.02;14.52;;;;;;;-146.25;100.00;52493.91;2104286;28;20401;-63
2024/03/27 02:51:37;;;;;;;17.83;13.82;;;;;;;-146.25;100.00;52514.19;2104735;28;20542;-62
2024/03/27 02:52:38;;;;;;;21.90;14.25;;;;;;;-146.25;100.00;52491.88;2104318;28;20053;-63
2024/03/27 02:53:39;;;;;;;20.13;13.75;;;;;;;-146.25;100.00;52461.47;2087900;28;20037;-63
2024/03/27 02:54:43;;;;;;;18.20;13.35;;;;;;;-146.25;100.00;52471.59;2095832;28;20403;-63
2024/03/27 02:55:44;;;;;;;16.58;13.40;;;;;;;-146.25;100.00;52508.09;2096113;28;20953;-62
2024/03/27 02:56:48;;;;;;;20.88;14.32;;;;;;;-146.25;100.00;52514.19;2088547;28;20050;-63
2024/03/27 02:57:49;;;;;;;17.85;14.02;;;;;;;-146.25;100.00;52506.06;2088176;28;20037;-62
2024/03/27 02:58:49;;;;;;;18.63;13.75;;;;;;;-146.25;100.00;52449.31;2087901;28;20539;-62
2024/03/27 02:59:50;;;;;;;17.83;13.95;;;;;;;-146.25;100.00;52485.81;2088594;28;20053;-62
2024/03/27 03:00:51;;;;;;;21.13;14.32;;;;;;;-146.25;100.00;52477.69;2093310;28;20041;-63
2024/03/27 03:01:52;;;;;;;18.13;13.80;;;;;;;-146.25;100.00;52465.53;2096385;28;20551;-63
2024/03/27 03:02:53;;;;;;;20.02;14.25;;;;;;;-146.25;100.00;52471.59;2096127;28;20048;-64
2024/03/27 03:03:53;;;;;;;18.42;13.93;;;;;;;-146.25;100.00;52500.00;2095888;28;20033;-63
2024/03/27 03:04:54;;;;;;;18.35;13.75;;;;;;;-146.25;100.00;52497.97;2104159;28;20067;-63
2024/03/27 03:05:55;;;;;;;19.42;14.57;;;;;;;-146.25;100.00;52514.19;2104495;28;20128;-63
2024/03/27 03:06:56;;;;;;;17.00;13.45;;;;;;;-146.25;100.00;52477.69;2104142;28;20037;-63
2024/03/27 03:07:56;;;;;;;18.95;14.80;;;;;;;-146.25;100.00;52461.47;2104658;28;20106;-63
2024/03/27 03:08:57;;;;;;;19.45;14.00;;;;;;;-146.25;100.00;52491.88;2096013;28;20052;-64
2024/03/27 03:09:59;;;;;;;20.17;13.75;;;;;;;-146.25;100.00;52483.78;2095673;28;20049;-62
2024/03/27 03:11:00;;;;;;;15.90;13.00;;;;;;;-146.25;100.00;52497.97;2096044;28;20484;-63
2024/03/27 03:12:01;;;;;;;22.52;15.52;;;;;;;-146.25;100.00;52514.19;2097768;28;20049;-63
2024/03/27 03:13:01;;;;;;;18.17;14.02;;;;;;;-146.25;100.00;52479.72;2106292;28;20503;-64
2024/03/27 03:14:04;;;;;;;19.40;13.45;;;;;;;-146.25;100.00;52437.13;2105951;28;20044;-63
2024/03/27 03:15:06;;;;;;;20.10;13.77;;;;;;;-146.25;100.00;52516.22;2089652;28;20034;-64
2024/03/27 03:16:09;;;;;;;20.52;14.85;;;;;;;-146.25;100.00;52471.59;2089373;28;20787;-64
2024/03/27 03:17:12;;;;;;;19.17;14.10;;;;;;;-146.25;100.00;52495.94;2089554;28;20818;-64
2024/03/27 03:18:13;;;;;;;19.60;14.00;;;;;;;-146.25;100.00;52518.25;2089647;28;20041;-64
2024/03/27 03:19:14;;;;;;;21.17;14.50;;;;;;;-146.25;100.00;52485.81;2105709;28;20041;-63
2024/03/27 03:20:15;;;;;;;18.67;14.20;;;;;;;-146.25;100.00;52487.81;2106010;28;20044;-63
2024/03/27 03:21:19;;;;;;;19.10;14.30;;;;;;;-146.25;100.00;52500.00;2081534;28;20038;-63
2024/03/27 03:22:20;;;;;;;18.73;14.32;;;;;;;-146.25;100.00;52506.06;2082281;28;20038;-63
2024/03/27 03:23:20;;;;;;;20.33;14.57;;;;;;;-146.25;100.00;52510.13;2106358;28;20051;-63
2024/03/27 03:24:21;;;;;;;19.67;14.85;;;;;;;-146.25;100.00;52497.97;2106030;28;20105;-63
2024/03/27 03:25:22;;;;;;;19.98;14.25;;;;;;;-146.25;100.00;52506.06;2088889;28;20523;-64
2024/03/27 03:26:23;;;;;;;20.73;14.73;;;;;;;-146.25;100.00;52518.25;2106156;28;20071;-63
2024/03/27 03:27:24;;;;;;;20.20;14.35;;;;;;;-146.25;100.00;52510.13;2105865;28;20091;-63
2024/03/27 03:28:25;;;;;;;18.30;14.63;;;;;;;-146.25;100.00;52437.13;2089429;28;20044;-65
2024/03/27 03:29:26;;;;;;;18.15;13.93;;;;;;;-146.25;100.00;52489.84;2089380;28;20103;-63
2024/03/27 03:30:27;;;;;;;18.95;14.20;;;;;;;-146.25;100.00;52518.25;2089088;28;20053;-63
2024/03/27 03:31:31;;;;;;;19.85;13.98;;;;;;;-146.25;100.00;52506.06;2097566;28;20057;-64
2024/03/27 03:32:32;;;;;;;19.70;15.05;;;;;;;-146.25;100.00;52508.09;2097233;28;20041;-63
2024/03/27 03:33:33;;;;;;;20.80;15.02;;;;;;;-146.25;100.00;52479.72;2089542;28;20068;-63
2024/03/27 03:34:34;;;;;;;20.08;15.40;;;;;;;-146.25;100.00;52514.19;2088872;28;20040;-65
2024/03/27 03:35:34;;;;;;;19.20;14.93;;;;;;;-146.25;100.00;52502.03;2088780;28;20061;-63
2024/03/27 03:36:35;;;;;;;21.00;15.13;;;;;;;-146.25;100.00;52465.53;2089147;28;20037;-63
2024/03/27 03:37:36;;;;;;;21.88;14.82;;;;;;;-146.25;100.00;52506.06;2089420;28;20072;-62
2024/03/27 03:38:40;;;;;;;20.55;15.50;;;;;;;-146.25;100.00;52491.88;2089149;28;20041;-62
2024/03/27 03:39:41;;;;;;;20.50;15.52;;;;;;;-146.25;100.00;52510.13;2088680;28;20029;-62
2024/03/27 03:41:00;;;;;;;21.00;14.93;;;;;;;-146.25;100.00;52516.22;2081014;28;20105;-62
2024/03/27 03:42:01;;;;;;;20.88;14.98;;;;;;;-146.25;100.00;52510.13;2087635;28;20116;-62
2024/03/27 03:43:02;;;;;;;19.20;14.95;;;;;;;-146.25;100.00;52502.03;2089571;28;20053;-62
2024/03/27 03:44:03;;;;;;;19.90;14.65;;;;;;;-146.25;100.00;52483.78;2097404;28;20125;-62
2024/03/27 03:45:05;;;;;;;21.55;15.18;;;;;;;-146.25;100.00;52502.03;2097421;28;20037;-61
2024/03/27 03:46:06;;;;;;;19.40;14.48;;;;;;;-146.25;100.00;52514.19;2097677;28;20037;-62
2024/03/27 03:47:06;;;;;;;19.02;14.63;;;;;;;-146.25;100.00;52489.84;2080622;28;20042;-63
2024/03/27 03:48:07;;;;;;;21.27;15.23;;;;;;;-146.25;100.00;52532.44;2080964;28;20073;-63
2024/03/27 03:49:09;;;;;;;21.63;15.05;;;;;;;-146.25;100.00;52518.25;2096944;28;20048;-62
2024/03/27 03:50:10;;;;;;;22.02;15.52;;;;;;;-146.25;100.00;52504.03;2097045;28;20960;-63
2024/03/27 03:51:10;;;;;;;18.92;14.50;;;;;;;-146.25;100.00;52485.81;2088638;28;20069;-62
2024/03/27 03:52:11;;;;;;;19.30;15.25;;;;;;;-146.25;100.00;52479.72;2089324;28;20046;-62
2024/03/27 03:53:12;;;;;;;19.42;15.23;;;;;;;-146.25;100.00;52516.22;2097365;28;20041;-62
2024/03/27 03:54:13;;;;;;;22.02;15.38;;;;;;;-146.25;100.00;52479.72;2105789;28;20064;-62
2024/03/27 03:55:14;;;;;;;22.67;16.52;;;;;;;-146.25;100.00;52518.25;2096824;28;20172;-62
2024/03/27 03:56:15;;;;;;;20.38;15.40;;;;;;;-146.25;100.00;52502.03;2097062;28;20041;-62
2024/03/27 03:57:15;;;;;;;20.08;15.90;;;;;;;-146.25;100.00;52518.25;2097473;28;20804;-62
2024/03/27 03:58:16;;;;;;;20.25;15.25;;;;;;;-146.25;100.00;52473.63;2089335;28;20566;-63
2024/03/27 03:59:17;;;;;;;21.83;15.05;;;;;;;-146.25;100.00;52502.03;2089006;28;20104;-62
2024/03/27 04:00:20;;;;;;;19.27;15.82;;;;;;;-146.25;100.00;52463.50;2089370;28;20085;-62
2024/03/27 04:01:21;;;;;;;22.13;15.68;;;;;;;-146.25;100.00;52520.28;2097548;28;20037;-62
2024/03/27 04:02:24;;;;;;;21.08;16.10;;;;;;;-146.25;100.00;52516.22;2097873;28;20505;-62
2024/03/27 04:03:25;;;;;;;20.67;14.63;;;;;;;-146.25;100.00;52469.56;2097561;28;20044;-64
2024/03/27 04:04:26;;;;;;;22.13;15.48;;;;;;;-146.25;100.00;52522.28;2089234;28;20053;-63
2024/03/27 04:05:27;;;;;;;23.05;16.05;;;;;;;-146.25;100.00;52506.06;2089273;28;20045;-62
2024/03/27 04:06:28;;;;;;;21.92;16.33;;;;;;;-146.25;100.00;52469.56;2097472;28;20116;-64
2024/03/27 04:07:31;;;;;;;21.73;16.17;;;;;;;-146.25;100.00;52485.81;2088733;28;20132;-62
2024/03/27 04:08:31;;;;;;;21.75;16.52;;;;;;;-146.25;100.00;52522.28;2081041;28;20038;-64
2024/03/27 04:09:32;;;;;;;22.98;16.17;;;;;;;-146.25;100.00;52536.50;2080462;28;20404;-63
2024/03/27 04:10:43;;;;;;;20.00;14.60;;;;;;;-146.25;100.00;52453.34;2088641;28;20049;-62
2024/03/27 04:11:45;;;;;;;21.75;16.13;;;;;;;-146.25;100.00;52489.84;2081474;28;20089;-62
2024/03/27 04:12:46;;;;;;;21.42;16.05;;;;;;;-146.25;100.00;52520.28;2089988;28;20045;-63
2024/03/27 04:13:47;;;;;;;24.00;16.63;;;;;;;-146.25;100.00;52471.59;2097236;28;20037;-63
2024/03/27 04:14:52;;;;;;;21.25;15.93;;;;;;;-146.25;100.00;52479.72;2088955;28;20109;-62
2024/03/27 04:15:52;;;;;;;22.90;17.17;;;;;;;-146.25;100.00;52510.13;2097287;28;20044;-62
2024/03/27 04:16:53;;;;;;;21.10;15.95;;;;;;;-146.25;100.00;52485.81;2097364;28;20511;-62
2024/03/27 04:17:54;;;;;;;23.60;16.42;;;;;;;-146.25;100.00;52489.84;2105217;28;20044;-62
2024/03/27 04:18:56;;;;;;;21.85;15.93;;;;;;;-146.25;100.00;52500.00;2105500;28;20032;-63
2024/03/27 04:20:02;;;;;;;20.70;15.80;;;;;;;-146.25;100.00;52522.28;2096963;28;20641;-63
2024/03/27 04:21:07;;;;;;;22.63;15.88;;;;;;;-146.25;100.00;52463.50;2097271;28;20045;-62
2024/03/27 04:22:07;;;;;;;21.85;16.25;;;;;;;-146.25;100.00;52489.84;2088869;28;20036;-63
2024/03/27 04:23:08;;;;;;;23.08;16.38;;;;;;;-146.25;100.00;52475.66;2089084;28;20503;-62
2024/03/27 04:24:09;;;;;;;23.45;17.17;;;;;;;-146.25;100.00;52518.25;2080326;28;20392;-63
2024/03/27 04:25:10;;;;;;;23.17;16.48;;;;;;;-146.25;100.00;52483.78;2096734;28;20522;-62
2024/03/27 04:26:15;;;;;;;24.05;16.80;;;;;;;-146.25;100.00;52485.81;2097184;28;20049;-63
2024/03/27 04:27:16;;;;;;;24.63;17.25;;;;;;;-146.25;100.00;52512.16;2090241;28;20170;-62
2024/03/27 04:28:17;;;;;;;26.15;17.00;;;;;;;-146.25;100.00;52491.88;2097135;28;20037;-63
2024/03/27 04:29:18;;;;;;;24.33;15.55;;;;;;;-146.25;100.00;52485.81;2097296;28;20045;-63
2024/03/27 04:30:19;;;;;;;23.60;16.63;;;;;;;-146.25;100.00;52502.03;2088442;28;20041;-63
2024/03/27 04:31:22;;;;;;;22.20;16.42;;;;;;;-146.25;100.00;52473.63;2088817;28;20420;-63
2024/03/27 04:32:24;;;;;;;24.70;17.38;;;;;;;-146.25;100.00;52502.03;2089181;28;20033;-63
2024/03/27 04:33:25;;;;;;;22.20;15.75;;;;;;;-146.25;100.00;52514.19;2105490;28;20041;-62
2024/03/27 04:34:26;;;;;;;20.65;15.93;;;;;;;-146.25;100.00;52489.84;2105389;28;20037;-65
2024/03/27 04:35:26;;;;;;;20.73;15.63;;;;;;;-146.25;100.00;52485.81;2105763;28;20068;-63